createdAt,value
2022-10-01T00:02:17.273Z,1.92
2022-10-01T00:04:45.202Z,2.17
2022-10-01T00:07:15.332Z,2.30
2022-10-01T00:09:43.440Z,2.20
2022-10-01T00:12:11.460Z,2.30
2022-10-01T00:14:39.626Z,2.10
2022-10-01T00:17:07.725Z,2.20
2022-10-01T00:19:37.228Z,2.08
2022-10-01T00:22:05.279Z,2.38
2022-10-01T00:24:33.685Z,2.17
2022-10-01T00:27:01.816Z,2.10
2022-10-01T00:29:29.755Z,2.00
2022-10-01T00:31:58.005Z,2.35
2022-10-01T00:34:26.527Z,2.00
2022-10-01T00:36:56.015Z,1.98
2022-10-01T00:39:24.789Z,2.10
2022-10-01T00:41:52.783Z,2.10
2022-10-01T00:44:41.693Z,2.10
2022-10-01T00:47:23.614Z,2.20
2022-10-01T00:49:57.432Z,2.20
2022-10-01T00:52:32.631Z,1.73
2022-10-01T00:55:06.277Z,2.08
2022-10-01T00:57:35.626Z,2.00
2022-10-01T01:00:07.796Z,2.40
2022-10-01T01:02:36.200Z,2.10
2022-10-01T01:05:04.912Z,2.25
2022-10-01T01:07:35.134Z,2.30
2022-10-01T01:10:06.471Z,2.13
2022-10-01T01:12:50.561Z,2.28
2022-10-01T01:15:26.752Z,2.20
2022-10-01T01:18:00.476Z,2.20
2022-10-01T01:20:45.899Z,2.10
2022-10-01T01:23:43.863Z,2.35
2022-10-01T01:26:23.766Z,2.40
2022-10-01T01:31:29.896Z,2.30
2022-10-01T01:34:00.665Z,2.33
2022-10-01T01:36:38.049Z,2.30
2022-10-01T01:39:09.855Z,1.95
2022-10-01T01:41:43.027Z,2.17
2022-10-01T01:44:17.672Z,2.10
2022-10-01T01:46:49.598Z,2.30
2022-10-01T01:49:20.201Z,2.10
2022-10-01T01:51:53.947Z,2.40
2022-10-01T01:54:22.243Z,2.00
2022-10-01T01:56:51.253Z,2.05
2022-10-01T01:59:21.165Z,2.13
2022-10-01T02:01:49.520Z,2.00
2022-10-01T02:04:23.187Z,2.13
2022-10-01T02:07:16.230Z,2.35
2022-10-01T02:09:53.198Z,2.10
2022-10-01T02:12:32.918Z,2.13
2022-10-01T02:15:09.718Z,2.45
2022-10-01T02:17:50.618Z,1.88
2022-10-01T02:20:25.072Z,2.03
2022-10-01T02:22:56.898Z,2.22
2022-10-01T02:25:27.709Z,2.58
2022-10-01T02:28:01.040Z,2.28
2022-10-01T02:30:32.995Z,2.30
2022-10-01T02:33:03.650Z,2.20
2022-10-01T02:35:35.198Z,2.30
2022-10-01T02:38:06.783Z,2.50
2022-10-01T02:40:39.890Z,2.72
2022-10-01T02:43:12.128Z,2.95
2022-10-01T02:45:45.035Z,3.30
2022-10-01T02:48:18.117Z,3.45
2022-10-01T02:50:51.206Z,3.65
2022-10-01T02:53:23.105Z,3.33
2022-10-01T02:55:53.042Z,3.88
2022-10-01T02:58:20.406Z,4.00
2022-10-01T03:00:49.766Z,3.83
2022-10-01T03:03:17.843Z,3.72
2022-10-01T03:05:45.765Z,4.35
2022-10-01T03:08:13.853Z,4.45
2022-10-01T03:10:46.039Z,4.80
2022-10-01T03:13:15.102Z,5.18
2022-10-01T03:15:43.208Z,4.63
2022-10-01T03:18:12.559Z,5.30
2022-10-01T03:20:40.440Z,4.95
2022-10-01T03:23:08.602Z,5.25
2022-10-01T03:25:36.541Z,5.88
2022-10-01T03:28:04.552Z,4.85
2022-10-01T03:30:33.290Z,5.72
2022-10-01T03:33:01.260Z,5.50
2022-10-01T03:35:31.189Z,6.25
2022-10-01T03:40:26.931Z,5.43
2022-10-01T03:42:55.032Z,5.63
2022-10-01T03:45:22.930Z,5.70
2022-10-01T03:47:53.202Z,5.72
2022-10-01T03:50:21.955Z,5.32
2022-10-01T03:52:51.748Z,5.28
2022-10-01T03:55:20.163Z,5.40
2022-10-01T03:57:48.592Z,5.05
2022-10-01T04:00:18.310Z,5.10
2022-10-01T04:02:46.511Z,5.15
2022-10-01T04:05:15.132Z,4.82
2022-10-01T04:07:43.981Z,5.13
2022-10-01T04:10:13.939Z,4.53
2022-10-01T04:15:10.487Z,3.65
2022-10-01T04:17:41.582Z,3.85
2022-10-01T04:20:11.964Z,3.35
2022-10-01T04:22:42.036Z,4.13
2022-10-01T04:25:11.885Z,3.47
2022-10-01T04:27:41.972Z,3.83
2022-10-01T04:30:11.435Z,4.00
2022-10-01T04:32:39.814Z,3.83
2022-10-01T04:35:11.653Z,3.53
2022-10-01T04:37:41.217Z,5.05
2022-10-01T04:40:10.695Z,3.50
2022-10-01T04:42:42.376Z,3.50
2022-10-01T04:45:12.059Z,3.47
2022-10-01T04:47:40.307Z,3.47
2022-10-01T04:50:08.826Z,3.53
2022-10-01T04:52:36.752Z,2.97
2022-10-01T04:55:05.128Z,3.55
2022-10-01T04:57:33.098Z,3.50
2022-10-01T05:00:04.563Z,3.07
2022-10-01T05:02:34.522Z,3.20
2022-10-01T05:07:32.409Z,3.20
2022-10-01T05:10:00.867Z,2.83
2022-10-01T05:12:29.522Z,3.30
2022-10-01T05:14:57.870Z,3.28
2022-10-01T05:17:27.187Z,3.28
2022-10-01T05:19:55.117Z,3.47
2022-10-01T05:22:23.536Z,3.83
2022-10-01T05:24:51.827Z,3.38
2022-10-01T05:27:20.244Z,3.38
2022-10-01T05:29:48.392Z,3.00
2022-10-01T05:32:16.484Z,3.35
2022-10-01T05:34:47.913Z,3.65
2022-10-01T05:37:19.228Z,3.38
2022-10-01T05:39:47.128Z,3.13
2022-10-01T05:42:15.629Z,3.20
2022-10-01T05:44:46.270Z,3.42
2022-10-01T05:47:15.132Z,3.08
2022-10-01T05:49:44.530Z,3.42
2022-10-01T05:52:16.536Z,3.80
2022-10-01T05:54:44.546Z,3.10
2022-10-01T05:57:13.052Z,2.80
2022-10-01T05:59:41.051Z,2.92
2022-10-01T06:02:10.713Z,3.38
2022-10-01T06:04:41.331Z,3.35
2022-10-01T06:07:09.459Z,2.70
2022-10-01T06:09:38.749Z,2.83
2022-10-01T06:12:08.629Z,2.65
2022-10-01T06:14:37.575Z,2.72
2022-10-01T06:17:05.631Z,2.72
2022-10-01T06:19:33.601Z,2.75
2022-10-01T06:22:01.480Z,2.78
2022-10-01T06:24:30.779Z,2.47
2022-10-01T06:27:00.053Z,2.50
2022-10-01T06:29:28.057Z,2.47
2022-10-01T06:31:55.993Z,2.30
2022-10-01T06:34:26.403Z,2.50
2022-10-01T06:36:54.334Z,2.40
2022-10-01T06:39:22.300Z,2.50
2022-10-01T06:41:50.168Z,2.55
2022-10-01T06:44:20.468Z,2.47
2022-10-01T06:46:48.425Z,2.30
2022-10-01T06:49:20.434Z,2.38
2022-10-01T06:52:06.046Z,2.22
2022-10-01T06:54:34.040Z,1.77
2022-10-01T06:57:01.977Z,1.92
2022-10-01T06:59:31.322Z,2.05
2022-10-01T07:02:00.348Z,1.95
2022-10-01T07:04:29.320Z,1.83
2022-10-01T07:06:58.784Z,1.55
2022-10-01T07:09:27.312Z,1.42
2022-10-01T07:11:55.208Z,1.60
2022-10-01T07:14:23.135Z,1.50
2022-10-01T07:16:52.431Z,1.30
2022-10-01T07:19:20.523Z,1.30
2022-10-01T07:21:49.213Z,1.30
2022-10-01T07:24:17.425Z,1.15
2022-10-01T07:26:45.371Z,1.42
2022-10-01T07:29:13.372Z,1.35
2022-10-01T07:31:47.334Z,1.35
2022-10-01T07:34:17.049Z,1.45
2022-10-01T07:36:45.527Z,1.33
2022-10-01T07:39:14.146Z,1.30
2022-10-01T07:41:43.293Z,1.20
2022-10-01T07:44:11.907Z,1.40
2022-10-01T07:46:40.248Z,1.48
2022-10-01T07:49:09.631Z,1.17
2022-10-01T07:51:39.204Z,1.10
2022-10-01T07:54:07.603Z,1.40
2022-10-01T07:56:35.954Z,0.95
2022-10-01T07:59:04.627Z,1.27
2022-10-01T08:01:33.344Z,1.30
2022-10-01T08:04:22.553Z,1.30
2022-10-01T08:06:52.476Z,1.40
2022-10-01T08:09:20.463Z,1.30
2022-10-01T08:11:49.020Z,1.20
2022-10-01T08:14:19.169Z,1.20
2022-10-01T08:16:47.535Z,0.90
2022-10-01T08:19:16.148Z,0.90
2022-10-01T08:21:44.212Z,1.00
2022-10-01T08:24:14.131Z,0.90
2022-10-01T08:26:42.088Z,1.20
2022-10-01T08:29:13.593Z,1.08
2022-10-01T08:31:44.289Z,0.82
2022-10-01T08:34:12.229Z,1.30
2022-10-01T08:36:40.167Z,1.13
2022-10-01T08:39:08.141Z,1.17
2022-10-01T08:41:49.509Z,1.35
2022-10-01T08:44:21.775Z,1.10
2022-10-01T08:46:51.401Z,1.17
2022-10-01T08:49:24.706Z,1.30
2022-10-01T08:51:56.750Z,1.38
2022-10-01T08:54:32.553Z,1.67
2022-10-01T08:57:03.916Z,1.45
2022-10-01T08:59:39.887Z,1.60
2022-10-01T09:02:21.490Z,1.67
2022-10-01T09:04:56.705Z,1.90
2022-10-01T09:07:48.303Z,1.65
2022-10-01T09:10:27.330Z,1.80
2022-10-01T09:13:13.434Z,2.10
2022-10-01T09:15:45.077Z,2.05
2022-10-01T09:18:19.371Z,2.15
2022-10-01T09:20:52.814Z,2.70
2022-10-01T09:23:27.829Z,2.58
2022-10-01T09:25:57.282Z,3.25
2022-10-01T09:28:30.027Z,3.10
2022-10-01T09:31:01.675Z,3.58
2022-10-01T09:33:32.843Z,3.95
2022-10-01T09:36:08.562Z,3.78
2022-10-01T09:38:40.779Z,3.80
2022-10-01T09:41:10.534Z,4.03
2022-10-01T09:43:41.388Z,4.10
2022-10-01T09:46:14.195Z,4.65
2022-10-01T09:48:50.387Z,4.13
2022-10-01T09:51:22.235Z,4.00
2022-10-01T09:54:03.361Z,4.40
2022-10-01T09:56:38.629Z,5.03
2022-10-01T09:59:14.683Z,4.60
2022-10-01T10:01:47.099Z,5.22
2022-10-01T10:04:21.033Z,4.68
2022-10-01T10:06:49.429Z,5.35
2022-10-01T10:09:19.693Z,5.68
2022-10-01T10:11:47.619Z,5.57
2022-10-01T10:14:20.910Z,4.57
2022-10-01T10:16:49.836Z,5.30
2022-10-01T10:19:24.279Z,4.82
2022-10-01T10:21:54.132Z,5.82
2022-10-01T10:24:28.337Z,5.22
2022-10-01T10:26:58.600Z,6.25
2022-10-01T10:29:30.503Z,5.65
2022-10-01T10:31:59.724Z,6.03
2022-10-01T10:34:33.837Z,5.90
2022-10-01T10:37:06.156Z,5.65
2022-10-01T10:39:36.839Z,5.97
2022-10-01T10:42:07.465Z,6.00
2022-10-01T10:44:39.876Z,6.20
2022-10-01T10:47:11.400Z,6.40
2022-10-01T10:49:46.298Z,6.30
2022-10-01T10:52:25.271Z,6.03
2022-10-01T10:54:54.553Z,6.60
2022-10-01T10:57:27.835Z,6.20
2022-10-01T10:59:59.840Z,6.28
2022-10-01T11:02:30.097Z,5.70
2022-10-01T11:05:01.859Z,5.90
2022-10-01T11:07:30.918Z,6.10
2022-10-01T11:10:09.180Z,5.15
2022-10-01T11:12:56.568Z,5.00
2022-10-01T11:15:42.080Z,5.68
2022-10-01T11:18:33.312Z,5.38
2022-10-01T11:21:13.992Z,4.93
2022-10-01T11:24:02.975Z,5.55
2022-10-01T11:26:39.052Z,5.30
2022-10-01T11:29:20.698Z,5.45
2022-10-01T11:31:57.290Z,5.80
2022-10-01T11:34:40.025Z,5.50
2022-10-01T11:37:14.575Z,5.78
2022-10-01T11:39:45.572Z,4.53
2022-10-01T11:42:17.790Z,5.10
2022-10-01T11:44:50.466Z,4.68
2022-10-01T11:47:38.180Z,4.88
2022-10-01T11:50:16.340Z,4.22
2022-10-01T11:52:49.444Z,4.78
2022-10-01T11:55:39.821Z,4.55
2022-10-01T11:58:33.183Z,4.90
2022-10-01T12:01:07.059Z,4.50
2022-10-01T12:03:47.398Z,4.90
2022-10-01T12:06:18.547Z,4.43
2022-10-01T12:08:55.156Z,5.10
2022-10-01T12:11:28.403Z,4.72
2022-10-01T12:14:03.551Z,5.00
2022-10-01T12:16:43.072Z,5.70
2022-10-01T12:19:18.415Z,5.95
2022-10-01T12:21:55.321Z,6.40
2022-10-01T12:24:28.852Z,6.43
2022-10-01T12:27:08.241Z,6.60
2022-10-01T12:29:45.268Z,5.20
2022-10-01T12:32:26.331Z,3.80
2022-10-01T12:35:06.952Z,3.67
2022-10-01T12:37:53.232Z,3.10
2022-10-01T12:40:31.771Z,2.90
2022-10-01T12:43:33.852Z,2.95
2022-10-01T12:46:10.365Z,2.80
2022-10-01T12:48:48.437Z,2.50
2022-10-01T12:51:45.832Z,2.47
2022-10-01T12:55:04.422Z,3.10
2022-10-01T12:57:45.311Z,3.38
2022-10-01T13:00:19.481Z,3.67
2022-10-01T13:03:33.853Z,4.07
2022-10-01T13:06:24.327Z,3.00
2022-10-01T13:09:16.592Z,2.75
2022-10-01T13:12:04.289Z,2.50
2022-10-01T13:14:34.503Z,2.20
2022-10-01T13:17:10.346Z,2.00
2022-10-01T13:19:47.166Z,2.05
2022-10-01T13:22:28.582Z,2.00
2022-10-01T13:25:07.200Z,1.50
2022-10-01T13:27:39.943Z,1.52
2022-10-01T13:30:20.151Z,1.50
2022-10-01T13:32:53.590Z,1.40
2022-10-01T13:35:34.445Z,1.52
2022-10-01T13:38:20.156Z,1.40
2022-10-01T13:40:58.556Z,1.15
2022-10-01T13:43:26.913Z,1.20
2022-10-01T13:45:56.473Z,1.30
2022-10-01T13:48:29.200Z,1.15
2022-10-01T13:51:03.203Z,1.00
2022-10-01T13:53:34.532Z,0.90
2022-10-01T13:56:05.166Z,1.02
2022-10-01T13:58:37.351Z,0.50
2022-10-01T14:01:12.508Z,0.40
2022-10-01T14:03:51.786Z,0.50
2022-10-01T14:06:27.029Z,0.77
2022-10-01T14:09:01.128Z,0.90
2022-10-01T14:11:52.043Z,0.98
2022-10-01T14:14:42.249Z,0.88
2022-10-01T14:17:11.107Z,0.80
2022-10-01T14:19:46.946Z,0.63
2022-10-01T14:22:24.389Z,0.90
2022-10-01T14:25:15.054Z,1.13
2022-10-01T14:27:48.913Z,0.70
2022-10-01T14:30:21.436Z,0.52
2022-10-01T14:33:09.111Z,1.10
2022-10-01T14:35:44.388Z,0.65
2022-10-01T14:38:15.092Z,0.65
2022-10-01T14:40:44.624Z,1.20
2022-10-01T14:43:19.894Z,1.10
2022-10-01T14:45:57.684Z,1.55
2022-10-01T14:48:27.715Z,1.10
2022-10-01T14:53:26.622Z,1.10
2022-10-01T14:58:29.782Z,1.50
2022-10-01T15:00:58.997Z,1.40
2022-10-01T15:03:27.031Z,1.20
2022-10-01T15:06:04.674Z,1.42
2022-10-01T15:08:41.432Z,1.60
2022-10-01T15:11:14.330Z,1.30
2022-10-01T15:13:46.848Z,1.50
2022-10-01T15:16:17.610Z,1.45
2022-10-01T15:18:49.902Z,1.10
2022-10-01T15:21:23.847Z,2.00
2022-10-01T15:23:52.462Z,1.20
2022-10-01T15:26:25.215Z,1.25
2022-10-01T15:29:03.169Z,1.33
2022-10-01T15:31:31.796Z,1.73
2022-10-01T15:34:02.071Z,1.45
2022-10-01T15:36:30.367Z,1.73
2022-10-01T15:39:00.818Z,1.60
2022-10-01T15:41:33.104Z,1.42
2022-10-01T15:44:05.070Z,1.30
2022-10-01T15:46:35.940Z,1.40
2022-10-01T15:49:16.612Z,1.30
2022-10-01T15:52:07.150Z,1.10
2022-10-01T15:54:36.338Z,1.63
2022-10-01T15:57:06.155Z,1.23
2022-10-01T16:02:09.619Z,1.40
2022-10-01T16:04:37.885Z,1.55
2022-10-01T16:07:06.086Z,2.25
2022-10-01T16:09:34.253Z,1.60
2022-10-01T16:12:06.806Z,1.60
2022-10-01T16:14:39.526Z,1.60
2022-10-01T16:17:28.022Z,1.20
2022-10-01T16:19:58.703Z,1.58
2022-10-01T16:22:29.554Z,1.73
2022-10-01T16:25:01.151Z,1.70
2022-10-01T16:27:31.417Z,1.60
2022-10-01T16:30:05.602Z,1.95
2022-10-01T16:32:34.807Z,1.95
2022-10-01T16:35:17.727Z,2.33
2022-10-01T16:37:47.513Z,1.90
2022-10-01T16:40:16.470Z,2.10
2022-10-01T16:42:45.975Z,2.53
2022-10-01T16:45:17.934Z,2.40
2022-10-01T16:47:46.978Z,2.28
2022-10-01T16:50:17.641Z,2.50
2022-10-01T16:52:46.005Z,2.72
2022-10-01T16:55:18.833Z,2.78
2022-10-01T16:57:46.923Z,3.30
2022-10-01T17:00:17.308Z,2.40
2022-10-01T17:02:45.732Z,2.72
2022-10-01T17:05:18.499Z,2.38
2022-10-01T17:07:46.636Z,4.05
2022-10-01T17:10:15.033Z,2.47
2022-10-01T17:12:44.131Z,2.78
2022-10-01T17:15:15.700Z,2.88
2022-10-01T17:17:45.191Z,2.78
2022-10-01T17:20:13.774Z,2.58
2022-10-01T17:22:42.855Z,2.92
2022-10-01T17:25:17.417Z,2.50
2022-10-01T17:27:45.473Z,2.50
2022-10-01T17:30:13.630Z,2.45
2022-10-01T17:32:43.019Z,2.17
2022-10-01T17:35:13.948Z,2.45
2022-10-01T17:37:42.572Z,2.05
2022-10-01T17:40:12.183Z,2.55
2022-10-01T17:42:40.341Z,2.25
2022-10-01T17:45:10.683Z,1.83
2022-10-01T17:47:43.044Z,2.17
2022-10-01T17:50:12.669Z,1.52
2022-10-01T17:52:40.754Z,1.80
2022-10-01T17:55:09.670Z,1.95
2022-10-01T17:57:37.616Z,2.25
2022-10-01T18:00:06.699Z,2.17
2022-10-01T18:02:42.942Z,2.38
2022-10-01T18:05:14.742Z,2.28
2022-10-01T18:07:43.217Z,2.50
2022-10-01T18:10:13.842Z,1.85
2022-10-01T18:12:41.937Z,2.70
2022-10-01T18:15:10.754Z,1.92
2022-10-01T18:17:43.535Z,2.28
2022-10-01T18:20:16.021Z,1.90
2022-10-01T18:22:44.177Z,1.90
2022-10-01T18:25:13.935Z,2.35
2022-10-01T18:27:41.946Z,2.15
2022-10-01T18:30:10.979Z,2.15
2022-10-01T18:32:43.174Z,1.92
2022-10-01T18:35:23.015Z,1.73
2022-10-01T18:37:53.428Z,2.70
2022-10-01T18:40:24.332Z,2.08
2022-10-01T18:42:57.820Z,1.85
2022-10-01T18:45:41.871Z,1.60
2022-10-01T18:48:36.854Z,1.95
2022-10-01T18:51:15.776Z,1.92
2022-10-01T18:54:06.923Z,2.05
2022-10-01T18:56:37.420Z,1.90
2022-10-01T18:59:29.847Z,1.73
2022-10-01T19:02:12.288Z,1.80
2022-10-01T19:05:11.567Z,1.80
2022-10-01T19:07:57.636Z,2.67
2022-10-01T19:10:34.083Z,1.63
2022-10-01T19:13:11.856Z,2.00
2022-10-01T19:15:50.421Z,1.92
2022-10-01T19:18:49.096Z,1.67
2022-10-01T19:21:26.317Z,1.58
2022-10-01T19:24:32.715Z,1.70
2022-10-01T19:27:09.504Z,1.65
2022-10-01T19:29:55.078Z,2.53
2022-10-01T19:32:26.914Z,2.00
2022-10-01T19:35:03.282Z,2.03
2022-10-01T19:37:37.645Z,1.90
2022-10-01T19:40:15.156Z,1.73
2022-10-01T19:42:49.716Z,1.67
2022-10-01T19:45:24.349Z,1.80
2022-10-01T19:48:00.193Z,1.83
2022-10-01T19:50:32.750Z,1.70
2022-10-01T19:53:03.702Z,1.85
2022-10-01T19:55:38.942Z,1.95
2022-10-01T19:58:17.508Z,1.55
2022-10-01T20:00:48.311Z,1.73
2022-10-01T20:03:22.470Z,1.55
2022-10-01T20:05:54.463Z,1.35
2022-10-01T20:08:34.049Z,1.65
2022-10-01T20:11:12.562Z,1.70
2022-10-01T20:13:54.338Z,2.42
2022-10-01T20:16:28.240Z,1.80
2022-10-01T20:19:05.418Z,1.73
2022-10-01T20:21:52.149Z,1.90
2022-10-01T20:24:39.112Z,1.30
2022-10-01T20:27:20.111Z,1.67
2022-10-01T20:29:54.248Z,1.67
2022-10-01T20:32:29.186Z,1.63
2022-10-01T20:35:07.409Z,1.63
2022-10-01T20:38:00.181Z,1.40
2022-10-01T20:40:30.980Z,1.65
2022-10-01T20:43:07.026Z,1.83
2022-10-01T20:45:36.415Z,1.83
2022-10-01T20:48:08.821Z,2.45
2022-10-01T20:50:43.835Z,1.88
2022-10-01T20:53:21.355Z,1.23
2022-10-01T20:55:53.734Z,1.67
2022-10-01T20:58:26.217Z,1.70
2022-10-01T21:00:59.443Z,1.73
2022-10-01T21:03:32.061Z,1.83
2022-10-01T21:06:06.502Z,1.90
2022-10-01T21:08:42.162Z,1.90
2022-10-01T21:11:15.966Z,1.90
2022-10-01T21:13:53.086Z,2.30
2022-10-01T21:16:56.341Z,1.98
2022-10-01T21:19:37.845Z,2.42
2022-10-01T21:22:18.214Z,2.08
2022-10-01T21:24:59.366Z,2.55
2022-10-01T21:27:48.239Z,1.95
2022-10-01T21:30:20.296Z,2.15
2022-10-01T21:33:05.515Z,1.92
2022-10-01T21:35:43.165Z,1.63
2022-10-01T21:38:15.371Z,1.75
2022-10-01T21:40:54.234Z,2.20
2022-10-01T21:43:32.896Z,1.92
2022-10-01T21:46:11.098Z,2.20
2022-10-01T21:48:44.438Z,1.70
2022-10-01T21:51:18.088Z,2.00
2022-10-01T21:54:15.251Z,3.00
2022-10-01T21:57:03.075Z,2.25
2022-10-01T22:00:06.428Z,1.90
2022-10-01T22:02:45.344Z,1.48
2022-10-01T22:05:22.596Z,1.95
2022-10-01T22:07:58.452Z,1.80
2022-10-01T22:10:31.641Z,1.05
2022-10-01T22:13:04.365Z,1.30
2022-10-01T22:15:38.659Z,1.42
2022-10-01T22:18:13.115Z,1.20
2022-10-01T22:20:43.323Z,1.27
2022-10-01T22:23:15.861Z,1.13
2022-10-01T22:25:51.506Z,1.20
2022-10-01T22:28:24.635Z,3.42
2022-10-01T22:30:55.459Z,1.40
2022-10-01T22:33:30.548Z,1.05
2022-10-01T22:36:05.454Z,1.55
2022-10-01T22:38:39.939Z,0.80
2022-10-01T22:41:12.298Z,0.98
2022-10-01T22:43:43.065Z,1.15
2022-10-01T22:46:45.312Z,0.90
2022-10-01T22:49:24.557Z,1.42
2022-10-01T22:52:05.758Z,1.17
2022-10-01T22:54:44.848Z,1.33
2022-10-01T22:59:59.558Z,2.53
2022-10-01T23:02:33.890Z,3.00
2022-10-01T23:05:19.562Z,3.28
2022-10-01T23:07:58.473Z,3.45
2022-10-01T23:10:35.968Z,3.85
2022-10-01T23:13:13.303Z,3.85
2022-10-01T23:15:50.266Z,2.85
2022-10-01T23:18:31.794Z,3.33
2022-10-01T23:21:14.129Z,3.30
2022-10-01T23:23:47.890Z,3.65
2022-10-01T23:26:29.918Z,3.08
2022-10-01T23:29:15.403Z,2.97
2022-10-01T23:31:53.598Z,2.97
2022-10-01T23:34:28.259Z,3.92
2022-10-01T23:37:17.977Z,3.85
2022-10-01T23:39:48.823Z,4.72
2022-10-01T23:42:28.528Z,4.85
2022-10-01T23:45:06.043Z,4.88
2022-10-01T23:47:41.084Z,5.22
2022-10-01T23:50:17.724Z,5.05
2022-10-01T23:52:56.164Z,5.57
2022-10-01T23:55:52.009Z,6.32
2022-10-01T23:58:23.816Z,5.82
